createdAt,value
2017-08-31T00:00:56.504Z,1006.99
2017-08-31T00:02:18.420Z,1007.06
2017-08-31T00:03:40.822Z,1007.11
2017-08-31T00:05:03.078Z,1007.08
2017-08-31T00:06:25.225Z,1007.06
2017-08-31T00:07:47.383Z,1007.1
2017-08-31T00:09:09.474Z,1007.06
2017-08-31T00:10:31.966Z,1007.1
2017-08-31T00:11:53.446Z,1007.1
2017-08-31T00:13:15.622Z,1007.03
2017-08-31T00:14:37.855Z,1007.07
2017-08-31T00:15:59.703Z,1007.11
2017-08-31T00:17:21.524Z,1007.14
2017-08-31T00:18:43.703Z,1007.1
2017-08-31T00:20:06.091Z,1007.03
2017-08-31T00:21:27.938Z,1006.99
2017-08-31T00:22:49.779Z,1006.95
2017-08-31T00:24:12.260Z,1007.02
2017-08-31T00:25:34.173Z,1006.96
2017-08-31T00:26:56.349Z,1006.92
2017-08-31T00:28:18.504Z,1006.89
2017-08-31T00:29:40.333Z,1006.88
2017-08-31T00:31:02.849Z,1006.88
2017-08-31T00:32:24.482Z,1006.85
2017-08-31T00:33:46.014Z,1006.83
2017-08-31T00:35:08.166Z,1006.81
2017-08-31T00:36:30.062Z,1006.79
2017-08-31T00:37:52.241Z,1006.88
2017-08-31T00:39:13.760Z,1006.85
2017-08-31T00:40:35.625Z,1006.9
2017-08-31T00:41:58.321Z,1006.95
2017-08-31T00:43:21.043Z,1007
2017-08-31T00:44:42.864Z,1007.01
2017-08-31T00:46:04.368Z,1006.95
2017-08-31T00:47:26.213Z,1006.91
2017-08-31T00:48:47.726Z,1006.96
2017-08-31T00:50:09.580Z,1006.98
2017-08-31T00:51:31.733Z,1007
2017-08-31T00:52:53.910Z,1006.93
2017-08-31T00:54:15.733Z,1006.92
2017-08-31T00:55:37.881Z,1006.88
2017-08-31T00:57:00.044Z,1006.9
2017-08-31T00:58:22.261Z,1007
2017-08-31T00:59:44.423Z,1007.09
2017-08-31T01:01:06.759Z,1007.13
2017-08-31T01:02:28.915Z,1007.12
2017-08-31T01:03:51.441Z,1007.1
2017-08-31T01:05:12.665Z,1007.14
2017-08-31T01:06:35.272Z,1007.18
2017-08-31T01:07:56.493Z,1007.16
2017-08-31T01:09:18.514Z,1007.23
2017-08-31T01:10:40.715Z,1007.25
2017-08-31T01:12:03.191Z,1007.24
2017-08-31T01:13:24.770Z,1007.26
2017-08-31T01:14:47.429Z,1007.28
2017-08-31T01:16:09.894Z,1007.33
2017-08-31T01:17:31.439Z,1007.38
2017-08-31T01:18:52.934Z,1007.33
2017-08-31T01:20:15.432Z,1007.37
2017-08-31T01:21:38.056Z,1007.31
2017-08-31T01:23:00.624Z,1007.29
2017-08-31T01:24:23.086Z,1007.28
2017-08-31T01:25:45.595Z,1007.37
2017-08-31T01:27:07.758Z,1007.46
2017-08-31T01:28:29.903Z,1007.51
2017-08-31T01:29:51.723Z,1007.59
2017-08-31T01:31:13.605Z,1007.62
2017-08-31T01:32:35.446Z,1007.63
2017-08-31T01:33:56.943Z,1007.67
2017-08-31T01:35:19.103Z,1007.68
2017-08-31T01:36:41.666Z,1007.71
2017-08-31T01:38:03.816Z,1007.74
2017-08-31T01:39:25.344Z,1007.72
2017-08-31T01:40:47.180Z,1007.74
2017-08-31T01:42:09.361Z,1007.63
2017-08-31T01:43:30.871Z,1007.57
2017-08-31T01:44:53.433Z,1007.52
2017-08-31T01:46:15.576Z,1007.55
2017-08-31T01:47:37.880Z,1007.53
2017-08-31T01:49:00.359Z,1007.6
2017-08-31T01:50:21.893Z,1007.57
2017-08-31T01:51:44.497Z,1007.56
2017-08-31T01:53:07.264Z,1007.57
2017-08-31T01:54:29.758Z,1007.51
2017-08-31T01:55:51.604Z,1007.5
2017-08-31T01:57:14.094Z,1007.49
2017-08-31T01:58:36.913Z,1007.49
2017-08-31T01:59:59.413Z,1007.61
2017-08-31T02:01:21.639Z,1007.61
2017-08-31T02:02:43.143Z,1007.65
2017-08-31T02:04:05.301Z,1007.7
2017-08-31T02:05:27.195Z,1007.71
2017-08-31T02:06:49.022Z,1007.72
2017-08-31T02:08:11.184Z,1007.76
2017-08-31T02:09:33.374Z,1007.69
2017-08-31T02:10:54.953Z,1007.71
2017-08-31T02:12:16.793Z,1007.72
2017-08-31T02:13:38.953Z,1007.78
2017-08-31T02:15:00.708Z,1007.73
2017-08-31T02:16:23.014Z,1007.68
2017-08-31T02:17:45.322Z,1007.68
2017-08-31T02:19:06.842Z,1007.74
2017-08-31T02:20:29.032Z,1007.67
2017-08-31T02:21:50.222Z,1007.74
2017-08-31T02:23:12.068Z,1007.78
2017-08-31T02:24:33.577Z,1007.84
2017-08-31T02:25:56.106Z,1007.86
2017-08-31T02:27:17.938Z,1007.88
2017-08-31T02:28:39.492Z,1007.86
2017-08-31T02:30:01.683Z,1007.93
2017-08-31T02:31:23.884Z,1007.96
2017-08-31T02:32:46.362Z,1008.03
2017-08-31T02:34:08.259Z,1008.03
2017-08-31T02:35:30.415Z,1008.06
2017-08-31T02:36:52.608Z,1008.06
2017-08-31T02:38:14.114Z,1008.04
2017-08-31T02:39:35.662Z,1008.04
2017-08-31T02:40:57.605Z,1008.04
2017-08-31T02:42:19.414Z,1008.02
2017-08-31T02:43:41.383Z,1008.04
2017-08-31T02:45:03.547Z,1007.97
2017-08-31T02:46:25.059Z,1007.99
2017-08-31T02:47:47.987Z,1008.02
2017-08-31T02:49:10.220Z,1008.03
2017-08-31T02:50:32.743Z,1008.04
2017-08-31T02:51:54.876Z,1008.05
2017-08-31T02:53:17.442Z,1008.16
2017-08-31T02:54:39.617Z,1008.16
2017-08-31T02:56:02.064Z,1008.18
2017-08-31T02:57:24.201Z,1008.22
2017-08-31T02:58:46.625Z,1008.22
2017-08-31T03:00:08.463Z,1008.17
2017-08-31T03:01:30.290Z,1008.2
2017-08-31T03:02:52.573Z,1008.19
2017-08-31T03:04:15.392Z,1008.13
2017-08-31T03:05:36.903Z,1008.08
2017-08-31T03:06:59.138Z,1008.12
2017-08-31T03:08:20.334Z,1008.13
2017-08-31T03:09:43.133Z,1008.14
2017-08-31T03:11:04.963Z,1008.19
2017-08-31T03:12:27.103Z,1008.16
2017-08-31T03:13:49.715Z,1008.21
2017-08-31T03:15:11.854Z,1008.23
2017-08-31T03:16:32.724Z,1008.31
2017-08-31T03:17:54.206Z,1008.33
2017-08-31T03:19:16.412Z,1008.34
2017-08-31T03:20:37.972Z,1008.28
2017-08-31T03:21:59.484Z,1008.25
2017-08-31T03:23:21.312Z,1008.28
2017-08-31T03:24:43.154Z,1008.24
2017-08-31T03:26:05.692Z,1008.27
2017-08-31T03:27:27.565Z,1008.31
2017-08-31T03:28:50.124Z,1008.26
2017-08-31T03:30:12.602Z,1008.36
2017-08-31T03:31:34.463Z,1008.38
2017-08-31T03:32:56.633Z,1008.38
2017-08-31T03:34:18.843Z,1008.39
2017-08-31T03:35:40.715Z,1008.4
2017-08-31T03:37:03.539Z,1008.41
2017-08-31T03:38:25.385Z,1008.47
2017-08-31T03:39:47.541Z,1008.46
2017-08-31T03:41:09.754Z,1008.48
2017-08-31T03:42:31.922Z,1008.43
2017-08-31T03:43:54.469Z,1008.52
2017-08-31T03:45:16.609Z,1008.52
2017-08-31T03:46:38.565Z,1008.56
2017-08-31T03:48:01.203Z,1008.59
2017-08-31T03:49:22.743Z,1008.59
2017-08-31T03:50:44.564Z,1008.6
2017-08-31T03:52:06.393Z,1008.57
2017-08-31T03:53:28.912Z,1008.6
2017-08-31T03:54:51.073Z,1008.54
2017-08-31T03:56:12.893Z,1008.6
2017-08-31T03:57:35.411Z,1008.53
2017-08-31T03:58:57.873Z,1008.57
2017-08-31T04:00:19.973Z,1008.58
2017-08-31T04:01:42.436Z,1008.59
2017-08-31T04:03:04.588Z,1008.66
2017-08-31T04:04:26.453Z,1008.65
2017-08-31T04:05:48.732Z,1008.68
2017-08-31T04:07:11.046Z,1008.68
2017-08-31T04:08:32.668Z,1008.69
2017-08-31T04:09:54.831Z,1008.71
2017-08-31T04:11:16.664Z,1008.66
2017-08-31T04:12:38.923Z,1008.64
2017-08-31T04:14:01.382Z,1008.74
2017-08-31T04:15:23.291Z,1008.74
2017-08-31T04:16:44.801Z,1008.68
2017-08-31T04:18:06.973Z,1008.69
2017-08-31T04:19:29.112Z,1008.73
2017-08-31T04:20:51.356Z,1008.71
2017-08-31T04:22:13.515Z,1008.69
2017-08-31T04:23:35.433Z,1008.76
2017-08-31T04:24:57.905Z,1008.75
2017-08-31T04:26:20.644Z,1008.76
2017-08-31T04:27:42.820Z,1008.87
2017-08-31T04:29:04.722Z,1008.88
2017-08-31T04:30:26.256Z,1008.91
2017-08-31T04:31:48.079Z,1008.89
2017-08-31T04:33:10.233Z,1008.89
2017-08-31T04:34:32.045Z,1008.91
2017-08-31T04:35:53.869Z,1008.89
2017-08-31T04:37:16.602Z,1008.85
2017-08-31T04:38:39.077Z,1008.87
2017-08-31T04:40:00.912Z,1008.9
2017-08-31T04:41:23.384Z,1008.92
2017-08-31T04:42:45.896Z,1008.94
2017-08-31T04:44:07.729Z,1008.92
2017-08-31T04:45:29.872Z,1008.91
2017-08-31T04:46:51.726Z,1008.92
2017-08-31T04:48:13.864Z,1008.9
2017-08-31T04:49:36.346Z,1008.96
2017-08-31T04:50:57.523Z,1008.98
2017-08-31T04:52:19.473Z,1008.96
2017-08-31T04:53:41.344Z,1008.94
2017-08-31T04:55:03.277Z,1008.94
2017-08-31T04:56:25.173Z,1008.96
2017-08-31T04:57:47.672Z,1008.98
2017-08-31T04:59:10.172Z,1008.99
2017-08-31T05:00:32.024Z,1009
2017-08-31T05:01:53.551Z,1009
2017-08-31T05:03:15.062Z,1009.04
2017-08-31T05:04:37.466Z,1009.06
2017-08-31T05:05:59.307Z,1009
2017-08-31T05:07:21.522Z,1009.03
2017-08-31T05:08:43.350Z,1009.06
2017-08-31T05:10:05.438Z,1009.12
2017-08-31T05:11:27.671Z,1009.16
2017-08-31T05:12:49.662Z,1009.16
2017-08-31T05:14:11.547Z,1009.18
2017-08-31T05:15:33.392Z,1009.23
2017-08-31T05:16:55.283Z,1009.28
2017-08-31T05:18:17.112Z,1009.29
2017-08-31T05:19:38.956Z,1009.3
2017-08-31T05:21:01.433Z,1009.32
2017-08-31T05:22:23.623Z,1009.33
2017-08-31T05:23:45.456Z,1009.38
2017-08-31T05:25:07.614Z,1009.47
2017-08-31T05:26:30.446Z,1009.5
2017-08-31T05:27:52.293Z,1009.49
2017-08-31T05:29:13.923Z,1009.55
2017-08-31T05:30:35.738Z,1009.5
2017-08-31T05:31:57.632Z,1009.53
2017-08-31T05:33:19.479Z,1009.52
2017-08-31T05:34:41.943Z,1009.54
2017-08-31T05:36:04.244Z,1009.59
2017-08-31T05:37:27.284Z,1009.59
2017-08-31T05:38:48.765Z,1009.59
2017-08-31T05:40:10.654Z,1009.6
2017-08-31T05:41:32.531Z,1009.56
2017-08-31T05:42:54.393Z,1009.57
2017-08-31T05:44:15.920Z,1009.57
2017-08-31T05:45:38.080Z,1009.61
2017-08-31T05:46:59.923Z,1009.73
2017-08-31T05:48:22.244Z,1009.81
2017-08-31T05:49:44.057Z,1009.79
2017-08-31T05:51:05.934Z,1009.78
2017-08-31T05:52:28.096Z,1009.71
2017-08-31T05:53:50.601Z,1009.71
2017-08-31T05:55:12.836Z,1009.68
2017-08-31T05:56:35.294Z,1009.69
2017-08-31T05:57:57.460Z,1009.74
2017-08-31T05:59:20.374Z,1009.83
2017-08-31T06:00:42.549Z,1009.89
2017-08-31T06:02:04.953Z,1009.96
2017-08-31T06:03:26.143Z,1010.03
2017-08-31T06:04:47.957Z,1010.04
2017-08-31T06:06:10.230Z,1009.93
2017-08-31T06:07:31.853Z,1009.85
2017-08-31T06:08:54.182Z,1009.8
2017-08-31T06:10:16.046Z,1009.89
2017-08-31T06:11:37.873Z,1009.97
2017-08-31T06:13:00.343Z,1009.96
2017-08-31T06:14:22.195Z,1009.91
2017-08-31T06:15:44.715Z,1009.87
2017-08-31T06:17:06.549Z,1010
2017-08-31T06:18:28.054Z,1010.04
2017-08-31T06:19:50.015Z,1010.08
2017-08-31T06:21:12.552Z,1010.12
2017-08-31T06:22:34.713Z,1010.13
2017-08-31T06:23:57.203Z,1010.16
2017-08-31T06:25:19.429Z,1010.1
2017-08-31T06:26:41.425Z,1010.07
2017-08-31T06:28:03.302Z,1010.12
2017-08-31T06:29:25.513Z,1010.2
2017-08-31T06:30:47.484Z,1010.32
2017-08-31T06:32:09.363Z,1010.38
2017-08-31T06:33:31.541Z,1010.34
2017-08-31T06:34:53.697Z,1010.3
2017-08-31T06:36:16.165Z,1010.43
2017-08-31T06:37:38.238Z,1010.51
2017-08-31T06:39:01.412Z,1010.63
2017-08-31T06:40:25.036Z,1010.66
2017-08-31T06:41:47.514Z,1010.7
2017-08-31T06:43:09.599Z,1010.7
2017-08-31T06:44:31.428Z,1010.72
2017-08-31T06:45:53.566Z,1010.69
2017-08-31T06:47:15.433Z,1010.67
2017-08-31T06:48:37.333Z,1010.63
2017-08-31T06:49:58.889Z,1010.62
2017-08-31T06:51:21.467Z,1010.71
2017-08-31T06:52:43.612Z,1010.75
2017-08-31T06:54:05.794Z,1010.86
2017-08-31T06:55:27.954Z,1010.87
2017-08-31T06:56:50.211Z,1010.94
2017-08-31T06:58:12.388Z,1010.98
2017-08-31T06:59:33.974Z,1011.06
2017-08-31T07:00:56.131Z,1011.06
2017-08-31T07:02:18.630Z,1011.06
2017-08-31T07:03:40.799Z,1011.08
2017-08-31T07:05:04.767Z,1011.15
2017-08-31T07:06:26.934Z,1011.21
2017-08-31T07:07:49.109Z,1011.24
2017-08-31T07:09:10.946Z,1011.26
2017-08-31T07:10:33.667Z,1011.3
2017-08-31T07:11:55.542Z,1011.3
2017-08-31T07:13:17.397Z,1011.36
2017-08-31T07:14:39.215Z,1011.37
2017-08-31T07:16:01.107Z,1011.41
2017-08-31T07:17:23.604Z,1011.37
2017-08-31T07:18:45.434Z,1011.44
2017-08-31T07:20:07.605Z,1011.44
2017-08-31T07:21:30.648Z,1011.48
2017-08-31T07:22:52.467Z,1011.43
2017-08-31T07:24:14.290Z,1011.46
2017-08-31T07:25:36.241Z,1011.49
2017-08-31T07:26:59.031Z,1011.5
2017-08-31T07:28:21.477Z,1011.53
2017-08-31T07:29:43.314Z,1011.59
2017-08-31T07:31:04.507Z,1011.57
2017-08-31T07:32:26.676Z,1011.6
2017-08-31T07:33:49.173Z,1011.6
2017-08-31T07:35:11.354Z,1011.58
2017-08-31T07:36:33.506Z,1011.58
2017-08-31T07:37:55.694Z,1011.62
2017-08-31T07:39:17.530Z,1011.66
2017-08-31T07:40:39.733Z,1011.67
2017-08-31T07:42:01.577Z,1011.69
2017-08-31T07:43:23.430Z,1011.7
2017-08-31T07:44:45.753Z,1011.72
2017-08-31T07:46:07.963Z,1011.66
2017-08-31T07:47:29.796Z,1011.7
2017-08-31T07:48:52.205Z,1011.68
2017-08-31T07:50:14.677Z,1011.73
2017-08-31T07:51:37.165Z,1011.69
2017-08-31T07:52:59.705Z,1011.7
2017-08-31T07:54:22.496Z,1011.73
2017-08-31T07:55:44.483Z,1011.72
2017-08-31T07:57:06.322Z,1011.76
2017-08-31T07:58:28.136Z,1011.75
2017-08-31T07:59:50.945Z,1011.79
2017-08-31T08:01:13.086Z,1011.87
2017-08-31T08:02:35.578Z,1011.88
2017-08-31T08:03:57.715Z,1011.88
2017-08-31T08:05:19.308Z,1011.88
2017-08-31T08:06:41.470Z,1011.87
2017-08-31T08:08:03.393Z,1011.93
2017-08-31T08:09:25.601Z,1011.85
2017-08-31T08:10:48.122Z,1011.91
2017-08-31T08:12:09.637Z,1012.02
2017-08-31T08:13:31.890Z,1012.1
2017-08-31T08:14:53.735Z,1012.21
2017-08-31T08:16:16.503Z,1012.22
2017-08-31T08:17:38.325Z,1012.28
2017-08-31T08:18:59.833Z,1012.27
2017-08-31T08:20:21.667Z,1012.29
2017-08-31T08:21:44.074Z,1012.3
2017-08-31T08:23:05.949Z,1012.28
2017-08-31T08:24:28.513Z,1012.36
2017-08-31T08:25:50.664Z,1012.48
2017-08-31T08:27:13.432Z,1012.56
2017-08-31T08:28:35.298Z,1012.63
2017-08-31T08:29:57.588Z,1012.59
2017-08-31T08:31:19.752Z,1012.68
2017-08-31T08:32:41.889Z,1012.77
2017-08-31T08:34:04.116Z,1012.82
2017-08-31T08:35:26.289Z,1012.85
2017-08-31T08:36:48.505Z,1012.9
2017-08-31T08:38:11.302Z,1012.95
2017-08-31T08:39:32.929Z,1012.96
2017-08-31T08:40:54.874Z,1013.03
2017-08-31T08:42:17.366Z,1013.04
2017-08-31T08:43:39.792Z,1013.06
2017-08-31T08:45:01.943Z,1013.09
2017-08-31T08:46:24.111Z,1013.08
2017-08-31T08:47:46.273Z,1013.06
2017-08-31T08:49:08.407Z,1013.09
2017-08-31T08:50:30.889Z,1013.03
2017-08-31T08:51:53.483Z,1013
2017-08-31T08:53:14.996Z,1013.04
2017-08-31T08:54:37.194Z,1013.06
2017-08-31T08:55:59.072Z,1013.13
2017-08-31T08:57:21.233Z,1013.2
2017-08-31T08:58:43.067Z,1013.27
2017-08-31T09:00:04.830Z,1013.28
2017-08-31T09:01:27.003Z,1013.37
2017-08-31T09:02:49.578Z,1013.34
2017-08-31T09:04:11.413Z,1013.38
2017-08-31T09:05:33.564Z,1013.41
2017-08-31T09:06:56.033Z,1013.41
2017-08-31T09:08:18.520Z,1013.42
2017-08-31T09:09:40.698Z,1013.46
2017-08-31T09:11:02.927Z,1013.48
2017-08-31T09:12:25.453Z,1013.58
2017-08-31T09:13:47.402Z,1013.64
2017-08-31T09:15:09.244Z,1013.63
2017-08-31T09:16:31.892Z,1013.61
2017-08-31T09:17:54.156Z,1013.62
2017-08-31T09:19:15.724Z,1013.67
2017-08-31T09:20:37.873Z,1013.55
2017-08-31T09:22:00.333Z,1013.62
2017-08-31T09:23:22.951Z,1013.61
2017-08-31T09:24:45.513Z,1013.58
2017-08-31T09:26:07.340Z,1013.54
2017-08-31T09:27:29.518Z,1013.54
2017-08-31T09:28:52.015Z,1013.49
2017-08-31T09:30:13.842Z,1013.51
2017-08-31T09:31:36.103Z,1013.57
2017-08-31T09:32:57.959Z,1013.62
2017-08-31T09:34:20.103Z,1013.62
2017-08-31T09:35:41.924Z,1013.67
2017-08-31T09:37:04.387Z,1013.76
2017-08-31T09:38:26.646Z,1013.73
2017-08-31T09:39:48.792Z,1013.8
2017-08-31T09:41:10.300Z,1013.81
2017-08-31T09:42:32.209Z,1013.89
2017-08-31T09:43:54.353Z,1013.81
2017-08-31T09:45:16.201Z,1013.75
2017-08-31T09:46:37.730Z,1013.8
2017-08-31T09:48:00.330Z,1013.83
2017-08-31T09:49:22.971Z,1013.87
2017-08-31T09:50:44.964Z,1013.87
2017-08-31T09:52:06.785Z,1013.9
2017-08-31T09:53:28.294Z,1013.96
2017-08-31T09:54:50.783Z,1014.02
2017-08-31T09:56:11.959Z,1014.06
2017-08-31T09:57:33.452Z,1014.04
2017-08-31T09:58:55.911Z,1014
2017-08-31T10:00:18.623Z,1014.01
2017-08-31T10:01:41.216Z,1014
2017-08-31T10:03:03.052Z,1013.95
2017-08-31T10:04:24.889Z,1013.98
2017-08-31T10:05:47.659Z,1013.98
2017-08-31T10:07:10.163Z,1014.08
2017-08-31T10:08:32.098Z,1014.15
2017-08-31T10:09:53.615Z,1014.16
2017-08-31T10:11:16.385Z,1014.2
2017-08-31T10:12:38.543Z,1014.22
2017-08-31T10:14:01.134Z,1014.33
2017-08-31T10:15:23.613Z,1014.3
2017-08-31T10:16:46.033Z,1014.39
2017-08-31T10:18:07.925Z,1014.35
2017-08-31T10:19:29.433Z,1014.41
2017-08-31T10:20:51.904Z,1014.42
2017-08-31T10:22:13.992Z,1014.5
2017-08-31T10:23:36.474Z,1014.5
2017-08-31T10:24:58.625Z,1014.59
2017-08-31T10:26:20.501Z,1014.61
2017-08-31T10:27:42.893Z,1014.61
2017-08-31T10:29:04.725Z,1014.6
2017-08-31T10:30:27.203Z,1014.57
2017-08-31T10:31:49.074Z,1014.57
2017-08-31T10:33:11.492Z,1014.61
2017-08-31T10:34:33.332Z,1014.62
2017-08-31T10:35:55.182Z,1014.59
2017-08-31T10:37:16.723Z,1014.55
2017-08-31T10:38:38.545Z,1014.47
2017-08-31T10:40:00.473Z,1014.52
2017-08-31T10:41:22.323Z,1014.63
2017-08-31T10:42:44.493Z,1014.7
2017-08-31T10:44:07.124Z,1014.81
2017-08-31T10:45:29.608Z,1014.83
2017-08-31T10:46:51.752Z,1014.79
2017-08-31T10:48:13.574Z,1014.76
2017-08-31T10:49:35.336Z,1014.78
2017-08-31T10:50:57.519Z,1014.78
2017-08-31T10:52:19.369Z,1014.84
2017-08-31T10:53:41.273Z,1014.86
2017-08-31T10:55:03.879Z,1014.93
2017-08-31T10:56:25.817Z,1014.97
2017-08-31T10:57:48.074Z,1015.01
2017-08-31T10:59:09.899Z,1015.02
2017-08-31T11:00:32.092Z,1015.15
2017-08-31T11:01:54.242Z,1015.05
2017-08-31T11:03:16.731Z,1015.05
2017-08-31T11:04:39.318Z,1015.11
2017-08-31T11:06:01.788Z,1015.1
2017-08-31T11:07:23.654Z,1015.16
2017-08-31T11:08:45.188Z,1015.12
2017-08-31T11:10:07.689Z,1015.15
2017-08-31T11:11:30.485Z,1015.15
2017-08-31T11:12:52.963Z,1015.16
2017-08-31T11:14:15.144Z,1015.2
2017-08-31T11:15:37.298Z,1015.22
2017-08-31T11:16:59.774Z,1015.22
2017-08-31T11:18:22.259Z,1015.25
2017-08-31T11:19:44.419Z,1015.25
2017-08-31T11:21:06.105Z,1015.22
2017-08-31T11:22:28.675Z,1015.21
2017-08-31T11:23:50.842Z,1015.14
2017-08-31T11:25:13.348Z,1015.13
2017-08-31T11:26:34.873Z,1015.27
2017-08-31T11:27:57.589Z,1015.35
2017-08-31T11:29:20.952Z,1015.4
2017-08-31T11:30:43.945Z,1015.43
2017-08-31T11:32:06.686Z,1015.56
2017-08-31T11:33:28.631Z,1015.67
2017-08-31T11:34:51.655Z,1015.64
2017-08-31T11:36:14.325Z,1015.65
2017-08-31T11:37:36.984Z,1015.55
2017-08-31T11:38:59.444Z,1015.56
2017-08-31T11:40:21.612Z,1015.56
2017-08-31T11:41:43.813Z,1015.53
2017-08-31T11:43:06.404Z,1015.53
2017-08-31T11:44:28.824Z,1015.48
2017-08-31T11:45:50.794Z,1015.51
2017-08-31T11:47:13.294Z,1015.55
2017-08-31T11:48:35.461Z,1015.54
2017-08-31T11:49:57.964Z,1015.59
2017-08-31T11:51:20.172Z,1015.63
2017-08-31T11:52:42.148Z,1015.52
2017-08-31T11:54:04.295Z,1015.54
2017-08-31T11:55:26.761Z,1015.53
2017-08-31T11:56:48.592Z,1015.61
2017-08-31T11:58:10.437Z,1015.65
2017-08-31T11:59:32.922Z,1015.74
2017-08-31T12:00:54.360Z,1015.76
2017-08-31T12:02:16.692Z,1015.81
2017-08-31T12:03:39.181Z,1015.91
2017-08-31T12:05:01.424Z,1016
2017-08-31T12:06:23.641Z,1016.07
2017-08-31T12:07:46.138Z,1016.13
2017-08-31T12:09:08.137Z,1016.1
2017-08-31T12:10:29.668Z,1016.24
2017-08-31T12:11:51.822Z,1016.14
2017-08-31T12:13:13.027Z,1016.16
2017-08-31T12:14:35.219Z,1016.2
2017-08-31T12:15:56.845Z,1016.23
2017-08-31T12:17:19.687Z,1016.32
2017-08-31T12:18:42.230Z,1016.25
2017-08-31T12:20:04.243Z,1016.45
2017-08-31T12:21:26.415Z,1016.3
2017-08-31T12:22:49.243Z,1016.32
2017-08-31T12:24:11.093Z,1016.29
2017-08-31T12:25:33.249Z,1016.39
2017-08-31T12:26:55.113Z,1016.39
2017-08-31T12:28:17.914Z,1016.48
2017-08-31T12:29:40.403Z,1016.44
2017-08-31T12:31:02.620Z,1016.41
2017-08-31T12:32:24.799Z,1016.37
2017-08-31T12:33:46.941Z,1016.28
2017-08-31T12:35:08.794Z,1016.36
2017-08-31T12:36:30.700Z,1016.38
2017-08-31T12:37:53.273Z,1016.4
2017-08-31T12:39:15.035Z,1016.44
2017-08-31T12:40:37.232Z,1016.37
2017-08-31T12:41:58.856Z,1016.45
2017-08-31T12:43:21.356Z,1016.44
2017-08-31T12:44:43.170Z,1016.52
2017-08-31T12:46:05.793Z,1016.57
2017-08-31T12:47:28.312Z,1016.64
2017-08-31T12:48:50.164Z,1016.65
2017-08-31T12:50:12.686Z,1016.69
2017-08-31T12:51:34.841Z,1016.65
2017-08-31T12:52:57.333Z,1016.63
2017-08-31T12:54:19.905Z,1016.62
2017-08-31T12:55:42.238Z,1016.74
2017-08-31T12:57:04.093Z,1016.78
2017-08-31T12:58:25.611Z,1016.78
2017-08-31T12:59:48.086Z,1016.9
2017-08-31T13:01:10.216Z,1016.93
2017-08-31T13:02:32.468Z,1016.9
2017-08-31T13:03:54.616Z,1016.92
2017-08-31T13:05:17.133Z,1016.94
2017-08-31T13:06:39.972Z,1016.94
2017-08-31T13:08:02.147Z,1016.93
2017-08-31T13:09:24.633Z,1017.01
2017-08-31T13:10:46.793Z,1017.07
2017-08-31T13:12:08.992Z,1017.02
2017-08-31T13:13:31.480Z,1017.12
2017-08-31T13:14:53.317Z,1017.15
2017-08-31T13:16:15.803Z,1017.24
2017-08-31T13:17:38.127Z,1017.25
2017-08-31T13:18:59.956Z,1017.27
2017-08-31T13:20:22.663Z,1017.25
2017-08-31T13:21:44.687Z,1017.39
2017-08-31T13:23:07.286Z,1017.37
2017-08-31T13:24:29.452Z,1017.43
2017-08-31T13:25:51.622Z,1017.53
2017-08-31T13:27:13.783Z,1017.53
2017-08-31T13:28:36.373Z,1017.61
2017-08-31T13:29:58.531Z,1017.76
2017-08-31T13:31:21.020Z,1017.72
2017-08-31T13:32:43.209Z,1017.7
2017-08-31T13:34:05.682Z,1017.73
2017-08-31T13:35:28.256Z,1017.7
2017-08-31T13:36:50.102Z,1017.7
2017-08-31T13:38:12.600Z,1017.72
2017-08-31T13:39:35.415Z,1017.68
2017-08-31T13:40:57.922Z,1017.65
2017-08-31T13:42:19.758Z,1017.73
2017-08-31T13:43:42.294Z,1017.67
2017-08-31T13:45:05.113Z,1017.63
2017-08-31T13:46:27.598Z,1017.68
2017-08-31T13:47:49.123Z,1017.74
2017-08-31T13:49:11.803Z,1017.75
2017-08-31T13:50:34.325Z,1017.78
2017-08-31T13:51:56.790Z,1017.74
2017-08-31T13:53:18.635Z,1017.66
2017-08-31T13:54:40.143Z,1017.71
2017-08-31T13:56:03.302Z,1017.76
2017-08-31T13:57:25.462Z,1017.89
2017-08-31T13:58:46.994Z,1017.81
2017-08-31T14:00:09.475Z,1017.8
2017-08-31T14:01:32.290Z,1017.77
2017-08-31T14:02:54.523Z,1017.72
2017-08-31T14:04:16.723Z,1017.76
2017-08-31T14:05:39.222Z,1017.71
2017-08-31T14:07:01.463Z,1017.69
2017-08-31T14:08:23.339Z,1017.73
2017-08-31T14:09:45.964Z,1017.79
2017-08-31T14:11:08.107Z,1017.76
2017-08-31T14:12:31.091Z,1017.83
2017-08-31T14:13:53.614Z,1017.87
2017-08-31T14:15:16.083Z,1017.82
2017-08-31T14:16:38.716Z,1017.78
2017-08-31T14:18:00.603Z,1017.8
2017-08-31T14:19:23.161Z,1017.81
2017-08-31T14:20:45.476Z,1017.78
2017-08-31T14:22:07.637Z,1017.79
2017-08-31T14:23:29.917Z,1017.78
2017-08-31T14:24:52.125Z,1017.77
2017-08-31T14:26:13.972Z,1017.75
2017-08-31T14:27:36.169Z,1017.79
2017-08-31T14:28:58.583Z,1017.82
2017-08-31T14:30:21.121Z,1017.87
2017-08-31T14:31:43.278Z,1017.98
2017-08-31T14:33:05.922Z,1017.95
2017-08-31T14:34:28.347Z,1018.07
2017-08-31T14:35:50.534Z,1018.05
2017-08-31T14:37:13.031Z,1018.12
2017-08-31T14:38:35.228Z,1018.06
2017-08-31T14:39:57.713Z,1018.05
2017-08-31T14:41:19.910Z,1018.06
2017-08-31T14:42:42.098Z,1018.02
2017-08-31T14:44:04.400Z,1018
2017-08-31T14:45:27.051Z,1018
2017-08-31T14:46:49.369Z,1017.97
2017-08-31T14:48:11.549Z,1017.98
2017-08-31T14:49:33.405Z,1018.02
2017-08-31T14:50:55.957Z,1018.05
2017-08-31T14:52:17.980Z,1018.1
2017-08-31T14:53:40.505Z,1018.14
2017-08-31T14:55:02.836Z,1018.19
2017-08-31T14:56:25.870Z,1018.25
2017-08-31T14:57:48.394Z,1018.25
2017-08-31T14:59:10.715Z,1018.23
2017-08-31T15:00:32.585Z,1018.34
2017-08-31T15:01:55.356Z,1018.38
2017-08-31T15:03:17.543Z,1018.37
2017-08-31T15:04:39.757Z,1018.41
2017-08-31T15:06:02.390Z,1018.45
2017-08-31T15:07:25.226Z,1018.49
2017-08-31T15:08:47.426Z,1018.44
2017-08-31T15:10:09.602Z,1018.43
2017-08-31T15:11:32.114Z,1018.47
2017-08-31T15:12:54.593Z,1018.48
2017-08-31T15:14:17.126Z,1018.39
2017-08-31T15:15:39.626Z,1018.46
2017-08-31T15:17:01.664Z,1018.45
2017-08-31T15:18:24.411Z,1018.53
2017-08-31T15:19:46.978Z,1018.44
2017-08-31T15:21:09.183Z,1018.48
2017-08-31T15:22:31.677Z,1018.5
2017-08-31T15:23:54.217Z,1018.53
2017-08-31T15:25:16.423Z,1018.49
2017-08-31T15:26:38.672Z,1018.47
2017-08-31T15:28:00.543Z,1018.48
2017-08-31T15:29:23.404Z,1018.5
2017-08-31T15:30:45.593Z,1018.54
2017-08-31T15:32:07.772Z,1018.51
2017-08-31T15:33:29.937Z,1018.53
2017-08-31T15:34:52.722Z,1018.52
2017-08-31T15:36:14.577Z,1018.52
2017-08-31T15:37:37.073Z,1018.52
2017-08-31T15:38:59.594Z,1018.56
2017-08-31T15:40:22.325Z,1018.55
2017-08-31T15:41:44.805Z,1018.64
2017-08-31T15:43:07.410Z,1018.62
2017-08-31T15:44:29.894Z,1018.63
2017-08-31T15:45:52.900Z,1018.63
2017-08-31T15:47:15.384Z,1018.6
2017-08-31T15:48:37.544Z,1018.63
2017-08-31T15:49:59.393Z,1018.66
2017-08-31T15:51:21.895Z,1018.61
2017-08-31T15:52:44.387Z,1018.68
2017-08-31T15:54:06.255Z,1018.72
2017-08-31T15:55:28.462Z,1018.63
2017-08-31T15:56:50.977Z,1018.68
2017-08-31T15:58:13.601Z,1018.68
2017-08-31T15:59:35.785Z,1018.71
2017-08-31T16:00:57.634Z,1018.71
2017-08-31T16:02:20.054Z,1018.63
2017-08-31T16:03:42.203Z,1018.68
2017-08-31T16:05:04.387Z,1018.64
2017-08-31T16:06:26.244Z,1018.68
2017-08-31T16:07:48.714Z,1018.7
2017-08-31T16:09:10.907Z,1018.69
2017-08-31T16:10:33.200Z,1018.69
2017-08-31T16:11:55.086Z,1018.76
2017-08-31T16:13:17.514Z,1018.77
2017-08-31T16:14:40.016Z,1018.8
2017-08-31T16:16:02.498Z,1018.8
2017-08-31T16:17:25.045Z,1018.82
2017-08-31T16:18:47.493Z,1018.83
2017-08-31T16:20:09.682Z,1018.88
2017-08-31T16:21:31.539Z,1018.89
2017-08-31T16:22:53.758Z,1018.93
2017-08-31T16:24:16.557Z,1018.88
2017-08-31T16:25:38.421Z,1018.94
2017-08-31T16:27:00.596Z,1019
2017-08-31T16:28:22.807Z,1018.97
2017-08-31T16:29:45.315Z,1019.01
2017-08-31T16:31:07.805Z,1019.03
2017-08-31T16:32:29.664Z,1019.05
2017-08-31T16:33:52.185Z,1019.12
2017-08-31T16:35:14.354Z,1019.13
2017-08-31T16:36:36.574Z,1019.15
2017-08-31T16:37:59.178Z,1019.18
2017-08-31T16:39:21.360Z,1019.18